sensor_id;sensor_type;location;lat;lon;timestamp;P1;durP1;ratioP1;P2;durP2;ratioP2
572;SDS011;271;51.114;13.780;2024-01-15T00:02:25;22.67;;;5.80;;
572;SDS011;271;51.114;13.780;2024-01-15T00:05:13;21.60;;;6.05;;
572;SDS011;271;51.114;13.780;2024-01-15T00:08:02;25.20;;;7.32;;
572;SDS011;271;51.114;13.780;2024-01-15T00:10:50;23.75;;;6.25;;
572;SDS011;271;51.114;13.780;2024-01-15T00:13:38;23.70;;;7.32;;
572;SDS011;271;51.114;13.780;2024-01-15T00:16:25;22.50;;;6.05;;
572;SDS011;271;51.114;13.780;2024-01-15T00:19:13;27.13;;;7.07;;
572;SDS011;271;51.114;13.780;2024-01-15T00:22:01;23.52;;;7.03;;
572;SDS011;271;51.114;13.780;2024-01-15T00:24:50;22.30;;;7.88;;
572;SDS011;271;51.114;13.780;2024-01-15T00:27:37;23.38;;;6.50;;
572;SDS011;271;51.114;13.780;2024-01-15T00:30:25;21.13;;;5.53;;
572;SDS011;271;51.114;13.780;2024-01-15T00:33:13;24.00;;;6.40;;
572;SDS011;271;51.114;13.780;2024-01-15T00:36:01;21.25;;;5.57;;
572;SDS011;271;51.114;13.780;2024-01-15T00:38:49;24.08;;;5.70;;
572;SDS011;271;51.114;13.780;2024-01-15T00:41:38;26.13;;;7.30;;
572;SDS011;271;51.114;13.780;2024-01-15T00:44:26;23.13;;;5.72;;
572;SDS011;271;51.114;13.780;2024-01-15T00:47:13;24.70;;;7.47;;
572;SDS011;271;51.114;13.780;2024-01-15T00:50:01;23.70;;;6.22;;
572;SDS011;271;51.114;13.780;2024-01-15T00:52:49;22.40;;;6.43;;
572;SDS011;271;51.114;13.780;2024-01-15T00:55:37;24.45;;;6.00;;
572;SDS011;271;51.114;13.780;2024-01-15T00:58:26;22.85;;;7.13;;
572;SDS011;271;51.114;13.780;2024-01-15T01:01:14;21.50;;;6.10;;
572;SDS011;271;51.114;13.780;2024-01-15T01:04:02;25.13;;;6.93;;
572;SDS011;271;51.114;13.780;2024-01-15T01:06:49;24.83;;;7.93;;
572;SDS011;271;51.114;13.780;2024-01-15T01:09:37;24.13;;;6.57;;
572;SDS011;271;51.114;13.780;2024-01-15T01:12:25;25.55;;;6.35;;
572;SDS011;271;51.114;13.780;2024-01-15T01:15:14;22.30;;;6.45;;
572;SDS011;271;51.114;13.780;2024-01-15T01:18:02;22.08;;;6.35;;
572;SDS011;271;51.114;13.780;2024-01-15T01:20:50;27.65;;;7.18;;
572;SDS011;271;51.114;13.780;2024-01-15T01:23:38;23.13;;;6.90;;
572;SDS011;271;51.114;13.780;2024-01-15T01:26:25;23.90;;;6.60;;
572;SDS011;271;51.114;13.780;2024-01-15T01:29:13;25.63;;;7.07;;
572;SDS011;271;51.114;13.780;2024-01-15T01:32:02;24.23;;;7.28;;
572;SDS011;271;51.114;13.780;2024-01-15T01:34:50;25.25;;;6.85;;
572;SDS011;271;51.114;13.780;2024-01-15T01:37:38;26.92;;;6.88;;
572;SDS011;271;51.114;13.780;2024-01-15T01:40:25;24.33;;;7.10;;
572;SDS011;271;51.114;13.780;2024-01-15T01:43:13;23.58;;;6.80;;
572;SDS011;271;51.114;13.780;2024-01-15T01:46:01;25.33;;;7.28;;
572;SDS011;271;51.114;13.780;2024-01-15T01:48:51;25.70;;;6.93;;
572;SDS011;271;51.114;13.780;2024-01-15T01:51:39;24.75;;;7.00;;
572;SDS011;271;51.114;13.780;2024-01-15T01:54:27;25.48;;;8.27;;
572;SDS011;271;51.114;13.780;2024-01-15T01:57:16;26.83;;;7.43;;
572;SDS011;271;51.114;13.780;2024-01-15T02:00:05;23.52;;;6.60;;
572;SDS011;271;51.114;13.780;2024-01-15T02:02:54;26.88;;;7.97;;
572;SDS011;271;51.114;13.780;2024-01-15T02:05:43;27.60;;;7.55;;
572;SDS011;271;51.114;13.780;2024-01-15T02:08:31;24.33;;;8.15;;
572;SDS011;271;51.114;13.780;2024-01-15T02:11:19;27.90;;;8.02;;
572;SDS011;271;51.114;13.780;2024-01-15T02:14:07;23.13;;;7.30;;
572;SDS011;271;51.114;13.780;2024-01-15T02:16:56;24.65;;;6.72;;
572;SDS011;271;51.114;13.780;2024-01-15T02:19:43;27.35;;;8.02;;
572;SDS011;271;51.114;13.780;2024-01-15T02:22:32;25.42;;;7.10;;
572;SDS011;271;51.114;13.780;2024-01-15T02:25:21;24.52;;;7.50;;
572;SDS011;271;51.114;13.780;2024-01-15T02:28:09;25.50;;;7.55;;
572;SDS011;271;51.114;13.780;2024-01-15T02:30:58;25.05;;;7.03;;
572;SDS011;271;51.114;13.780;2024-01-15T02:33:46;25.02;;;7.25;;
572;SDS011;271;51.114;13.780;2024-01-15T02:36:34;27.23;;;8.30;;
572;SDS011;271;51.114;13.780;2024-01-15T02:39:21;24.77;;;8.20;;
572;SDS011;271;51.114;13.780;2024-01-15T02:42:10;24.35;;;8.25;;
572;SDS011;271;51.114;13.780;2024-01-15T02:44:58;23.80;;;7.38;;
572;SDS011;271;51.114;13.780;2024-01-15T02:47:46;25.02;;;7.25;;
572;SDS011;271;51.114;13.780;2024-01-15T02:50:34;26.05;;;8.38;;
572;SDS011;271;51.114;13.780;2024-01-15T02:53:21;26.15;;;9.45;;
572;SDS011;271;51.114;13.780;2024-01-15T02:56:09;23.60;;;7.35;;
572;SDS011;271;51.114;13.780;2024-01-15T02:58:58;26.88;;;7.80;;
572;SDS011;271;51.114;13.780;2024-01-15T03:01:46;27.55;;;9.02;;
572;SDS011;271;51.114;13.780;2024-01-15T03:04:33;23.92;;;8.20;;
572;SDS011;271;51.114;13.780;2024-01-15T03:07:21;25.48;;;8.10;;
572;SDS011;271;51.114;13.780;2024-01-15T03:10:09;26.50;;;7.65;;
572;SDS011;271;51.114;13.780;2024-01-15T03:12:57;23.52;;;6.78;;
572;SDS011;271;51.114;13.780;2024-01-15T03:15:46;24.40;;;7.53;;
572;SDS011;271;51.114;13.780;2024-01-15T03:18:33;24.20;;;7.97;;
572;SDS011;271;51.114;13.780;2024-01-15T03:21:21;27.90;;;8.15;;
572;SDS011;271;51.114;13.780;2024-01-15T03:24:09;25.88;;;8.10;;
572;SDS011;271;51.114;13.780;2024-01-15T03:26:56;27.40;;;7.95;;
572;SDS011;271;51.114;13.780;2024-01-15T03:29:44;28.13;;;8.30;;
572;SDS011;271;51.114;13.780;2024-01-15T03:32:33;25.98;;;7.78;;
572;SDS011;271;51.114;13.780;2024-01-15T03:35:21;24.50;;;8.25;;
572;SDS011;271;51.114;13.780;2024-01-15T03:38:08;22.42;;;7.50;;
572;SDS011;271;51.114;13.780;2024-01-15T03:40:56;26.65;;;8.10;;
572;SDS011;271;51.114;13.780;2024-01-15T03:43:43;25.70;;;7.55;;
572;SDS011;271;51.114;13.780;2024-01-15T03:46:31;24.00;;;8.30;;
572;SDS011;271;51.114;13.780;2024-01-15T03:49:21;28.25;;;9.45;;
572;SDS011;271;51.114;13.780;2024-01-15T03:52:08;25.90;;;7.70;;
572;SDS011;271;51.114;13.780;2024-01-15T03:54:56;25.05;;;7.57;;
572;SDS011;271;51.114;13.780;2024-01-15T03:57:43;25.70;;;8.20;;
572;SDS011;271;51.114;13.780;2024-01-15T04:00:31;25.13;;;8.13;;
572;SDS011;271;51.114;13.780;2024-01-15T04:03:19;26.65;;;8.35;;
572;SDS011;271;51.114;13.780;2024-01-15T04:06:08;24.95;;;8.13;;
572;SDS011;271;51.114;13.780;2024-01-15T04:08:55;24.67;;;8.05;;
572;SDS011;271;51.114;13.780;2024-01-15T04:11:43;24.10;;;7.43;;
572;SDS011;271;51.114;13.780;2024-01-15T04:14:31;23.85;;;7.55;;
572;SDS011;271;51.114;13.780;2024-01-15T04:17:18;25.65;;;7.50;;
572;SDS011;271;51.114;13.780;2024-01-15T04:20:07;26.70;;;8.02;;
572;SDS011;271;51.114;13.780;2024-01-15T04:22:57;24.83;;;7.43;;
572;SDS011;271;51.114;13.780;2024-01-15T04:25:45;25.92;;;8.25;;
572;SDS011;271;51.114;13.780;2024-01-15T04:28:32;25.80;;;7.93;;
572;SDS011;271;51.114;13.780;2024-01-15T04:31:20;25.92;;;8.65;;
572;SDS011;271;51.114;13.780;2024-01-15T04:34:09;24.88;;;8.88;;
572;SDS011;271;51.114;13.780;2024-01-15T04:36:57;25.42;;;8.80;;
572;SDS011;271;51.114;13.780;2024-01-15T04:39:46;25.35;;;8.27;;
572;SDS011;271;51.114;13.780;2024-01-15T04:42:34;24.58;;;7.38;;
572;SDS011;271;51.114;13.780;2024-01-15T04:45:21;26.25;;;8.82;;
572;SDS011;271;51.114;13.780;2024-01-15T04:48:14;25.88;;;7.95;;
572;SDS011;271;51.114;13.780;2024-01-15T04:51:03;27.38;;;6.70;;
572;SDS011;271;51.114;13.780;2024-01-15T04:53:51;23.17;;;7.47;;
572;SDS011;271;51.114;13.780;2024-01-15T04:56:40;23.27;;;6.55;;
572;SDS011;271;51.114;13.780;2024-01-15T04:59:28;24.13;;;6.85;;
572;SDS011;271;51.114;13.780;2024-01-15T05:02:16;24.77;;;7.32;;
572;SDS011;271;51.114;13.780;2024-01-15T05:05:03;23.40;;;7.47;;
572;SDS011;271;51.114;13.780;2024-01-15T05:07:51;22.17;;;6.38;;
572;SDS011;271;51.114;13.780;2024-01-15T05:10:39;22.15;;;6.90;;
572;SDS011;271;51.114;13.780;2024-01-15T05:13:28;25.50;;;7.25;;
572;SDS011;271;51.114;13.780;2024-01-15T05:16:16;25.33;;;7.80;;
572;SDS011;271;51.114;13.780;2024-01-15T05:19:03;23.63;;;7.50;;
572;SDS011;271;51.114;13.780;2024-01-15T05:21:51;21.95;;;6.40;;
572;SDS011;271;51.114;13.780;2024-01-15T05:24:38;25.10;;;7.63;;
572;SDS011;271;51.114;13.780;2024-01-15T05:27:26;25.38;;;8.05;;
572;SDS011;271;51.114;13.780;2024-01-15T05:30:15;25.83;;;7.10;;
572;SDS011;271;51.114;13.780;2024-01-15T05:33:04;26.25;;;7.55;;
572;SDS011;271;51.114;13.780;2024-01-15T05:35:53;25.55;;;8.73;;
572;SDS011;271;51.114;13.780;2024-01-15T05:38:40;23.55;;;7.35;;
572;SDS011;271;51.114;13.780;2024-01-15T05:41:28;23.85;;;6.65;;
572;SDS011;271;51.114;13.780;2024-01-15T05:44:16;24.45;;;6.63;;
572;SDS011;271;51.114;13.780;2024-01-15T05:47:05;24.05;;;6.60;;
572;SDS011;271;51.114;13.780;2024-01-15T05:49:53;25.45;;;7.00;;
572;SDS011;271;51.114;13.780;2024-01-15T05:52:41;25.83;;;7.03;;
572;SDS011;271;51.114;13.780;2024-01-15T05:55:29;23.83;;;6.35;;
572;SDS011;271;51.114;13.780;2024-01-15T05:58:17;25.20;;;7.53;;
572;SDS011;271;51.114;13.780;2024-01-15T06:01:04;22.20;;;6.32;;
572;SDS011;271;51.114;13.780;2024-01-15T06:03:53;25.88;;;6.93;;
572;SDS011;271;51.114;13.780;2024-01-15T06:06:41;24.52;;;7.03;;
572;SDS011;271;51.114;13.780;2024-01-15T06:09:29;23.10;;;7.40;;
572;SDS011;271;51.114;13.780;2024-01-15T06:12:17;23.15;;;6.10;;
572;SDS011;271;51.114;13.780;2024-01-15T06:15:05;23.30;;;6.85;;
572;SDS011;271;51.114;13.780;2024-01-15T06:17:53;24.92;;;6.75;;
572;SDS011;271;51.114;13.780;2024-01-15T06:20:42;25.67;;;7.43;;
572;SDS011;271;51.114;13.780;2024-01-15T06:23:30;26.77;;;7.60;;
572;SDS011;271;51.114;13.780;2024-01-15T06:26:18;22.48;;;6.22;;
572;SDS011;271;51.114;13.780;2024-01-15T06:29:05;25.17;;;6.60;;
572;SDS011;271;51.114;13.780;2024-01-15T06:31:53;21.73;;;5.70;;
572;SDS011;271;51.114;13.780;2024-01-15T06:34:41;25.13;;;5.05;;
572;SDS011;271;51.114;13.780;2024-01-15T06:37:30;22.15;;;6.43;;
572;SDS011;271;51.114;13.780;2024-01-15T06:40:18;22.80;;;6.60;;
572;SDS011;271;51.114;13.780;2024-01-15T06:43:06;22.45;;;5.70;;
572;SDS011;271;51.114;13.780;2024-01-15T06:45:53;21.83;;;6.05;;
572;SDS011;271;51.114;13.780;2024-01-15T06:48:41;22.90;;;6.63;;
572;SDS011;271;51.114;13.780;2024-01-15T06:51:29;22.70;;;5.57;;
572;SDS011;271;51.114;13.780;2024-01-15T06:54:18;23.10;;;7.00;;
572;SDS011;271;51.114;13.780;2024-01-15T06:57:06;21.58;;;5.75;;
572;SDS011;271;51.114;13.780;2024-01-15T06:59:54;22.27;;;6.72;;
572;SDS011;271;51.114;13.780;2024-01-15T07:02:41;22.05;;;5.85;;
572;SDS011;271;51.114;13.780;2024-01-15T07:05:29;22.83;;;5.22;;
572;SDS011;271;51.114;13.780;2024-01-15T07:08:17;22.73;;;6.20;;
572;SDS011;271;51.114;13.780;2024-01-15T07:11:06;22.65;;;6.50;;
572;SDS011;271;51.114;13.780;2024-01-15T07:13:54;21.65;;;6.15;;
572;SDS011;271;51.114;13.780;2024-01-15T07:16:41;22.90;;;5.35;;
572;SDS011;271;51.114;13.780;2024-01-15T07:19:29;20.73;;;5.57;;
572;SDS011;271;51.114;13.780;2024-01-15T07:22:17;21.40;;;5.80;;
572;SDS011;271;51.114;13.780;2024-01-15T07:25:05;21.65;;;5.70;;
572;SDS011;271;51.114;13.780;2024-01-15T07:27:55;23.35;;;5.88;;
572;SDS011;271;51.114;13.780;2024-01-15T07:30:42;20.92;;;5.70;;
572;SDS011;271;51.114;13.780;2024-01-15T07:33:30;21.02;;;6.13;;
572;SDS011;271;51.114;13.780;2024-01-15T07:36:18;19.55;;;4.88;;
572;SDS011;271;51.114;13.780;2024-01-15T07:39:06;20.73;;;5.75;;
572;SDS011;271;51.114;13.780;2024-01-15T07:41:54;22.73;;;6.15;;
572;SDS011;271;51.114;13.780;2024-01-15T07:44:43;20.35;;;5.90;;
572;SDS011;271;51.114;13.780;2024-01-15T07:47:31;22.95;;;6.32;;
572;SDS011;271;51.114;13.780;2024-01-15T07:50:18;24.70;;;7.10;;
572;SDS011;271;51.114;13.780;2024-01-15T07:53:06;23.88;;;6.60;;
572;SDS011;271;51.114;13.780;2024-01-15T07:55:54;22.98;;;6.03;;
572;SDS011;271;51.114;13.780;2024-01-15T07:58:42;22.58;;;6.43;;
572;SDS011;271;51.114;13.780;2024-01-15T08:01:31;22.23;;;5.38;;
572;SDS011;271;51.114;13.780;2024-01-15T08:04:19;22.45;;;6.75;;
572;SDS011;271;51.114;13.780;2024-01-15T08:07:07;22.50;;;6.55;;
572;SDS011;271;51.114;13.780;2024-01-15T08:09:55;21.20;;;6.47;;
572;SDS011;271;51.114;13.780;2024-01-15T08:12:43;23.00;;;6.45;;
572;SDS011;271;51.114;13.780;2024-01-15T08:15:30;22.20;;;5.55;;
572;SDS011;271;51.114;13.780;2024-01-15T08:18:19;21.95;;;6.20;;
572;SDS011;271;51.114;13.780;2024-01-15T08:21:07;22.02;;;5.60;;
572;SDS011;271;51.114;13.780;2024-01-15T08:23:55;23.15;;;6.45;;
572;SDS011;271;51.114;13.780;2024-01-15T08:26:43;25.27;;;6.95;;
572;SDS011;271;51.114;13.780;2024-01-15T08:29:31;22.40;;;6.47;;
572;SDS011;271;51.114;13.780;2024-01-15T08:32:20;23.45;;;5.95;;
572;SDS011;271;51.114;13.780;2024-01-15T08:35:09;26.35;;;7.93;;
572;SDS011;271;51.114;13.780;2024-01-15T08:37:58;23.90;;;6.40;;
572;SDS011;271;51.114;13.780;2024-01-15T08:40:45;20.58;;;5.13;;
572;SDS011;271;51.114;13.780;2024-01-15T08:43:33;24.73;;;6.53;;
572;SDS011;271;51.114;13.780;2024-01-15T08:46:21;22.73;;;6.53;;
572;SDS011;271;51.114;13.780;2024-01-15T08:49:10;22.25;;;5.43;;
572;SDS011;271;51.114;13.780;2024-01-15T08:51:59;22.50;;;7.45;;
572;SDS011;271;51.114;13.780;2024-01-15T08:54:47;21.75;;;6.15;;
572;SDS011;271;51.114;13.780;2024-01-15T08:57:34;21.85;;;6.05;;
572;SDS011;271;51.114;13.780;2024-01-15T09:00:22;19.65;;;5.30;;
572;SDS011;271;51.114;13.780;2024-01-15T09:03:10;21.40;;;5.95;;
572;SDS011;271;51.114;13.780;2024-01-15T09:05:57;22.80;;;5.15;;
572;SDS011;271;51.114;13.780;2024-01-15T09:08:46;20.95;;;5.07;;
572;SDS011;271;51.114;13.780;2024-01-15T09:11:34;22.35;;;6.47;;
572;SDS011;271;51.114;13.780;2024-01-15T09:14:22;21.13;;;6.70;;
572;SDS011;271;51.114;13.780;2024-01-15T09:17:12;24.58;;;5.97;;
572;SDS011;271;51.114;13.780;2024-01-15T09:20:00;22.48;;;5.93;;
572;SDS011;271;51.114;13.780;2024-01-15T09:22:50;22.75;;;6.20;;
572;SDS011;271;51.114;13.780;2024-01-15T09:25:39;22.95;;;5.35;;
572;SDS011;271;51.114;13.780;2024-01-15T09:28:27;21.35;;;5.40;;
572;SDS011;271;51.114;13.780;2024-01-15T09:31:14;21.65;;;5.28;;
572;SDS011;271;51.114;13.780;2024-01-15T09:34:03;20.67;;;5.70;;
572;SDS011;271;51.114;13.780;2024-01-15T09:36:50;21.17;;;5.55;;
572;SDS011;271;51.114;13.780;2024-01-15T09:39:38;22.52;;;5.93;;
572;SDS011;271;51.114;13.780;2024-01-15T09:42:27;21.00;;;5.55;;
572;SDS011;271;51.114;13.780;2024-01-15T09:45:16;20.05;;;5.43;;
572;SDS011;271;51.114;13.780;2024-01-15T09:48:04;21.80;;;4.72;;
572;SDS011;271;51.114;13.780;2024-01-15T09:50:52;23.15;;;4.97;;
572;SDS011;271;51.114;13.780;2024-01-15T09:53:40;22.08;;;5.10;;
572;SDS011;271;51.114;13.780;2024-01-15T09:56:30;20.73;;;4.80;;
572;SDS011;271;51.114;13.780;2024-01-15T09:59:20;20.63;;;5.00;;
572;SDS011;271;51.114;13.780;2024-01-15T10:02:11;19.92;;;4.68;;
572;SDS011;271;51.114;13.780;2024-01-15T10:05:04;22.58;;;4.70;;
572;SDS011;271;51.114;13.780;2024-01-15T10:07:52;20.35;;;5.55;;
572;SDS011;271;51.114;13.780;2024-01-15T10:10:41;20.23;;;4.03;;
572;SDS011;271;51.114;13.780;2024-01-15T10:13:29;19.30;;;4.55;;
572;SDS011;271;51.114;13.780;2024-01-15T10:16:19;19.90;;;4.30;;
572;SDS011;271;51.114;13.780;2024-01-15T10:19:07;20.85;;;4.32;;
572;SDS011;271;51.114;13.780;2024-01-15T10:21:55;20.30;;;4.40;;
572;SDS011;271;51.114;13.780;2024-01-15T10:24:43;22.42;;;4.90;;
572;SDS011;271;51.114;13.780;2024-01-15T10:27:31;21.63;;;5.10;;
572;SDS011;271;51.114;13.780;2024-01-15T10:30:19;22.45;;;4.47;;
572;SDS011;271;51.114;13.780;2024-01-15T10:33:08;19.02;;;4.45;;
572;SDS011;271;51.114;13.780;2024-01-15T10:35:56;20.65;;;5.22;;
572;SDS011;271;51.114;13.780;2024-01-15T10:38:46;21.95;;;4.38;;
572;SDS011;271;51.114;13.780;2024-01-15T10:41:34;24.52;;;4.90;;
572;SDS011;271;51.114;13.780;2024-01-15T10:44:22;22.42;;;5.22;;
572;SDS011;271;51.114;13.780;2024-01-15T10:47:09;20.63;;;4.82;;
572;SDS011;271;51.114;13.780;2024-01-15T10:49:59;20.38;;;4.40;;
572;SDS011;271;51.114;13.780;2024-01-15T10:52:48;21.60;;;5.18;;
572;SDS011;271;51.114;13.780;2024-01-15T10:55:37;20.00;;;4.75;;
572;SDS011;271;51.114;13.780;2024-01-15T10:58:25;20.10;;;4.60;;
572;SDS011;271;51.114;13.780;2024-01-15T11:01:18;22.40;;;4.55;;
572;SDS011;271;51.114;13.780;2024-01-15T11:04:06;19.58;;;4.18;;
572;SDS011;271;51.114;13.780;2024-01-15T11:06:56;19.63;;;4.13;;
572;SDS011;271;51.114;13.780;2024-01-15T11:09:45;19.95;;;4.68;;
572;SDS011;271;51.114;13.780;2024-01-15T11:12:32;23.88;;;5.25;;
572;SDS011;271;51.114;13.780;2024-01-15T11:15:20;20.58;;;4.85;;
572;SDS011;271;51.114;13.780;2024-01-15T11:18:08;23.27;;;4.88;;
572;SDS011;271;51.114;13.780;2024-01-15T11:24:09;19.38;;;4.80;;
572;SDS011;271;51.114;13.780;2024-01-15T11:26:58;20.75;;;4.35;;
572;SDS011;271;51.114;13.780;2024-01-15T11:29:45;20.60;;;4.75;;
572;SDS011;271;51.114;13.780;2024-01-15T11:32:35;21.65;;;5.20;;
572;SDS011;271;51.114;13.780;2024-01-15T11:35:22;21.35;;;5.20;;
572;SDS011;271;51.114;13.780;2024-01-15T11:38:10;24.35;;;4.60;;
572;SDS011;271;51.114;13.780;2024-01-15T11:40:59;21.95;;;4.63;;
572;SDS011;271;51.114;13.780;2024-01-15T11:43:47;20.83;;;4.68;;
572;SDS011;271;51.114;13.780;2024-01-15T11:46:35;21.10;;;5.55;;
572;SDS011;271;51.114;13.780;2024-01-15T11:49:37;19.05;;;4.55;;
572;SDS011;271;51.114;13.780;2024-01-15T11:52:47;21.75;;;5.50;;
572;SDS011;271;51.114;13.780;2024-01-15T11:55:43;21.40;;;5.15;;
572;SDS011;271;51.114;13.780;2024-01-15T11:58:33;23.77;;;4.30;;
572;SDS011;271;51.114;13.780;2024-01-15T12:01:23;19.83;;;4.88;;
572;SDS011;271;51.114;13.780;2024-01-15T12:04:11;25.20;;;4.55;;
572;SDS011;271;51.114;13.780;2024-01-15T12:07:01;19.25;;;4.95;;
572;SDS011;271;51.114;13.780;2024-01-15T12:09:49;19.63;;;3.78;;
572;SDS011;271;51.114;13.780;2024-01-15T12:12:43;20.38;;;4.82;;
572;SDS011;271;51.114;13.780;2024-01-15T12:15:42;18.90;;;3.90;;
572;SDS011;271;51.114;13.780;2024-01-15T12:18:31;19.35;;;4.05;;
572;SDS011;271;51.114;13.780;2024-01-15T12:21:18;22.10;;;4.90;;
572;SDS011;271;51.114;13.780;2024-01-15T12:24:07;20.17;;;4.90;;
572;SDS011;271;51.114;13.780;2024-01-15T12:26:54;18.80;;;3.88;;
572;SDS011;271;51.114;13.780;2024-01-15T12:29:42;20.85;;;4.50;;
572;SDS011;271;51.114;13.780;2024-01-15T12:32:31;19.92;;;4.78;;
572;SDS011;271;51.114;13.780;2024-01-15T12:35:19;19.67;;;5.00;;
572;SDS011;271;51.114;13.780;2024-01-15T12:38:07;20.55;;;5.03;;
572;SDS011;271;51.114;13.780;2024-01-15T12:40:55;20.45;;;4.60;;
572;SDS011;271;51.114;13.780;2024-01-15T12:43:42;20.65;;;4.65;;
572;SDS011;271;51.114;13.780;2024-01-15T12:46:30;21.02;;;4.75;;
572;SDS011;271;51.114;13.780;2024-01-15T12:49:19;21.00;;;4.50;;
572;SDS011;271;51.114;13.780;2024-01-15T12:52:08;21.65;;;5.45;;
572;SDS011;271;51.114;13.780;2024-01-15T12:54:57;22.33;;;4.30;;
572;SDS011;271;51.114;13.780;2024-01-15T12:57:45;22.50;;;4.60;;
572;SDS011;271;51.114;13.780;2024-01-15T13:00:33;20.17;;;4.88;;
572;SDS011;271;51.114;13.780;2024-01-15T13:03:22;23.45;;;6.10;;
572;SDS011;271;51.114;13.780;2024-01-15T13:06:11;20.50;;;5.30;;
572;SDS011;271;51.114;13.780;2024-01-15T13:08:58;24.63;;;7.28;;
572;SDS011;271;51.114;13.780;2024-01-15T13:11:46;25.52;;;7.07;;
572;SDS011;271;51.114;13.780;2024-01-15T13:14:34;21.70;;;5.68;;
572;SDS011;271;51.114;13.780;2024-01-15T13:17:22;20.08;;;4.47;;
572;SDS011;271;51.114;13.780;2024-01-15T13:20:10;22.27;;;5.95;;
572;SDS011;271;51.114;13.780;2024-01-15T13:23:00;22.70;;;6.60;;
572;SDS011;271;51.114;13.780;2024-01-15T13:25:49;23.65;;;6.50;;
572;SDS011;271;51.114;13.780;2024-01-15T13:28:37;25.08;;;6.95;;
572;SDS011;271;51.114;13.780;2024-01-15T13:31:25;21.23;;;5.60;;
572;SDS011;271;51.114;13.780;2024-01-15T13:34:13;30.50;;;9.85;;
572;SDS011;271;51.114;13.780;2024-01-15T13:37:00;20.73;;;5.55;;
572;SDS011;271;51.114;13.780;2024-01-15T13:39:50;20.15;;;5.00;;
572;SDS011;271;51.114;13.780;2024-01-15T13:42:39;18.75;;;4.53;;
572;SDS011;271;51.114;13.780;2024-01-15T13:45:26;19.83;;;3.92;;
572;SDS011;271;51.114;13.780;2024-01-15T13:48:15;19.85;;;4.80;;
572;SDS011;271;51.114;13.780;2024-01-15T13:51:04;20.65;;;4.72;;
572;SDS011;271;51.114;13.780;2024-01-15T13:53:52;19.60;;;4.70;;
572;SDS011;271;51.114;13.780;2024-01-15T13:56:41;21.85;;;5.20;;
572;SDS011;271;51.114;13.780;2024-01-15T13:59:28;18.13;;;3.78;;
572;SDS011;271;51.114;13.780;2024-01-15T14:02:18;20.13;;;4.20;;
572;SDS011;271;51.114;13.780;2024-01-15T14:05:06;23.33;;;6.15;;
572;SDS011;271;51.114;13.780;2024-01-15T14:07:54;20.27;;;4.72;;
572;SDS011;271;51.114;13.780;2024-01-15T14:10:42;20.77;;;4.80;;
572;SDS011;271;51.114;13.780;2024-01-15T14:13:31;20.90;;;5.20;;
572;SDS011;271;51.114;13.780;2024-01-15T14:16:19;23.58;;;6.10;;
572;SDS011;271;51.114;13.780;2024-01-15T14:19:07;20.67;;;4.72;;
572;SDS011;271;51.114;13.780;2024-01-15T14:21:55;22.10;;;5.93;;
572;SDS011;271;51.114;13.780;2024-01-15T14:24:43;20.60;;;5.28;;
572;SDS011;271;51.114;13.780;2024-01-15T14:27:31;21.88;;;5.70;;
572;SDS011;271;51.114;13.780;2024-01-15T14:30:20;22.17;;;6.45;;
572;SDS011;271;51.114;13.780;2024-01-15T14:33:07;24.55;;;5.97;;
572;SDS011;271;51.114;13.780;2024-01-15T14:35:55;22.88;;;7.30;;
572;SDS011;271;51.114;13.780;2024-01-15T14:38:43;18.70;;;4.90;;
572;SDS011;271;51.114;13.780;2024-01-15T14:41:30;21.48;;;5.32;;
572;SDS011;271;51.114;13.780;2024-01-15T14:44:18;21.75;;;5.35;;
572;SDS011;271;51.114;13.780;2024-01-15T14:47:08;19.70;;;5.32;;
572;SDS011;271;51.114;13.780;2024-01-15T14:49:56;22.58;;;5.78;;
572;SDS011;271;51.114;13.780;2024-01-15T14:52:43;25.88;;;5.75;;
572;SDS011;271;51.114;13.780;2024-01-15T14:55:32;23.05;;;5.70;;
572;SDS011;271;51.114;13.780;2024-01-15T14:58:19;23.90;;;6.50;;
572;SDS011;271;51.114;13.780;2024-01-15T15:01:07;24.50;;;6.85;;
572;SDS011;271;51.114;13.780;2024-01-15T15:03:56;24.40;;;6.95;;
572;SDS011;271;51.114;13.780;2024-01-15T15:06:44;23.90;;;6.05;;
572;SDS011;271;51.114;13.780;2024-01-15T15:09:32;23.83;;;5.88;;
572;SDS011;271;51.114;13.780;2024-01-15T15:12:20;25.77;;;8.32;;
572;SDS011;271;51.114;13.780;2024-01-15T15:15:07;25.65;;;6.72;;
572;SDS011;271;51.114;13.780;2024-01-15T15:17:56;23.45;;;7.55;;
572;SDS011;271;51.114;13.780;2024-01-15T15:20:45;25.27;;;7.85;;
572;SDS011;271;51.114;13.780;2024-01-15T15:23:33;23.35;;;7.65;;
572;SDS011;271;51.114;13.780;2024-01-15T15:26:21;39.30;;;13.32;;
572;SDS011;271;51.114;13.780;2024-01-15T15:29:09;35.90;;;12.88;;
572;SDS011;271;51.114;13.780;2024-01-15T15:31:56;23.30;;;6.93;;
572;SDS011;271;51.114;13.780;2024-01-15T15:34:44;23.15;;;6.43;;
572;SDS011;271;51.114;13.780;2024-01-15T15:37:33;25.70;;;7.07;;
572;SDS011;271;51.114;13.780;2024-01-15T15:40:21;24.35;;;6.65;;
572;SDS011;271;51.114;13.780;2024-01-15T15:43:10;21.13;;;6.50;;
572;SDS011;271;51.114;13.780;2024-01-15T15:45:57;22.23;;;6.07;;
572;SDS011;271;51.114;13.780;2024-01-15T15:48:45;21.77;;;6.22;;
572;SDS011;271;51.114;13.780;2024-01-15T15:51:33;25.13;;;6.63;;
572;SDS011;271;51.114;13.780;2024-01-15T15:54:23;22.38;;;5.50;;
572;SDS011;271;51.114;13.780;2024-01-15T15:57:11;25.65;;;6.38;;
572;SDS011;271;51.114;13.780;2024-01-15T15:59:59;21.90;;;6.35;;
572;SDS011;271;51.114;13.780;2024-01-15T16:02:46;23.30;;;6.53;;
572;SDS011;271;51.114;13.780;2024-01-15T16:05:34;24.08;;;6.50;;
572;SDS011;271;51.114;13.780;2024-01-15T16:08:22;23.15;;;6.15;;
572;SDS011;271;51.114;13.780;2024-01-15T16:11:11;20.95;;;6.43;;
572;SDS011;271;51.114;13.780;2024-01-15T16:13:59;20.20;;;5.25;;
572;SDS011;271;51.114;13.780;2024-01-15T16:16:47;22.08;;;5.45;;
572;SDS011;271;51.114;13.780;2024-01-15T16:19:34;22.00;;;5.80;;
572;SDS011;271;51.114;13.780;2024-01-15T16:22:22;23.10;;;4.75;;
572;SDS011;271;51.114;13.780;2024-01-15T16:25:11;23.23;;;5.30;;
572;SDS011;271;51.114;13.780;2024-01-15T16:28:00;20.60;;;4.90;;
572;SDS011;271;51.114;13.780;2024-01-15T16:30:48;22.70;;;4.47;;
572;SDS011;271;51.114;13.780;2024-01-15T16:33:36;21.75;;;5.85;;
572;SDS011;271;51.114;13.780;2024-01-15T16:36:23;19.10;;;4.70;;
572;SDS011;271;51.114;13.780;2024-01-15T16:39:12;20.63;;;4.60;;
572;SDS011;271;51.114;13.780;2024-01-15T16:41:59;20.10;;;5.15;;
572;SDS011;271;51.114;13.780;2024-01-15T16:44:48;21.48;;;5.60;;
572;SDS011;271;51.114;13.780;2024-01-15T16:47:36;21.73;;;4.95;;
572;SDS011;271;51.114;13.780;2024-01-15T16:50:24;21.20;;;5.25;;
572;SDS011;271;51.114;13.780;2024-01-15T16:53:12;23.05;;;5.70;;
572;SDS011;271;51.114;13.780;2024-01-15T16:55:59;20.65;;;5.13;;
572;SDS011;271;51.114;13.780;2024-01-15T16:58:47;20.98;;;5.15;;
572;SDS011;271;51.114;13.780;2024-01-15T17:01:36;22.08;;;5.60;;
572;SDS011;271;51.114;13.780;2024-01-15T17:04:24;21.80;;;6.20;;
572;SDS011;271;51.114;13.780;2024-01-15T17:07:11;23.67;;;6.18;;
572;SDS011;271;51.114;13.780;2024-01-15T17:09:59;21.88;;;5.82;;
572;SDS011;271;51.114;13.780;2024-01-15T17:12:47;22.65;;;6.07;;
572;SDS011;271;51.114;13.780;2024-01-15T17:15:35;23.35;;;7.38;;
572;SDS011;271;51.114;13.780;2024-01-15T17:18:24;21.33;;;6.25;;
572;SDS011;271;51.114;13.780;2024-01-15T17:21:12;22.55;;;5.93;;
572;SDS011;271;51.114;13.780;2024-01-15T17:24:01;22.02;;;7.57;;
572;SDS011;271;51.114;13.780;2024-01-15T17:26:49;25.38;;;8.45;;
572;SDS011;271;51.114;13.780;2024-01-15T17:29:37;22.25;;;6.50;;